createdAt,value
2018-08-12T00:01:34.522Z,10.97
2018-08-12T00:04:07.428Z,10.97
2018-08-12T00:06:39.516Z,11.20
2018-08-12T00:09:12.964Z,11.13
2018-08-12T00:11:45.100Z,12.20
2018-08-12T00:14:17.366Z,12.50
2018-08-12T00:16:49.770Z,11.50
2018-08-12T00:19:21.896Z,9.77
2018-08-12T00:21:54.241Z,11.47
2018-08-12T00:24:26.679Z,11.93
2018-08-12T00:26:58.970Z,13.77
2018-08-12T00:29:31.995Z,11.57
2018-08-12T00:32:04.376Z,11.53
2018-08-12T00:34:36.554Z,76.27
2018-08-12T00:37:09.894Z,36.77
2018-08-12T00:39:42.024Z,10.60
2018-08-12T00:42:14.401Z,10.30
2018-08-12T00:44:46.424Z,11.23
2018-08-12T00:47:18.568Z,11.77
2018-08-12T00:49:50.724Z,10.57
2018-08-12T00:52:23.077Z,10.97
2018-08-12T00:54:55.333Z,10.27
2018-08-12T00:57:27.536Z,10.90
2018-08-12T00:59:59.903Z,10.40
2018-08-12T01:02:32.052Z,11.33
2018-08-12T01:05:05.055Z,10.93
2018-08-12T01:07:37.389Z,10.30
2018-08-12T01:10:10.460Z,11.23
2018-08-12T01:12:42.810Z,12.07
2018-08-12T01:15:17.806Z,11.77
2018-08-12T01:17:50.045Z,12.40
2018-08-12T01:20:25.479Z,10.83
2018-08-12T01:22:57.923Z,12.83
2018-08-12T01:25:30.123Z,13.90
2018-08-12T01:28:02.465Z,13.40
2018-08-12T01:30:34.571Z,15.33
2018-08-12T01:33:06.863Z,13.43
2018-08-12T01:35:39.003Z,13.40
2018-08-12T01:38:11.148Z,14.37
2018-08-12T01:40:43.479Z,13.50
2018-08-12T01:43:15.785Z,12.23
2018-08-12T01:45:48.022Z,11.80
2018-08-12T01:48:20.159Z,14.63
2018-08-12T01:50:52.487Z,13.77
2018-08-12T01:53:24.838Z,17.17
2018-08-12T01:55:56.770Z,13.70
2018-08-12T01:58:28.802Z,12.20
2018-08-12T02:01:01.057Z,11.53
2018-08-12T02:03:33.426Z,11.83
2018-08-12T02:06:06.269Z,12.33
2018-08-12T02:08:43.111Z,12.10
2018-08-12T02:11:15.333Z,12.60
2018-08-12T02:13:47.612Z,12.07
2018-08-12T02:16:19.871Z,12.63
2018-08-12T02:18:51.788Z,12.43
2018-08-12T02:21:24.001Z,13.80
2018-08-12T02:23:56.219Z,12.27
2018-08-12T02:26:28.331Z,14.50
2018-08-12T02:29:00.482Z,12.50
2018-08-12T02:31:32.514Z,12.87
2018-08-12T02:34:04.397Z,11.93
2018-08-12T02:36:36.736Z,11.17
2018-08-12T02:39:12.539Z,10.97
2018-08-12T02:41:44.730Z,13.77
2018-08-12T02:44:16.959Z,14.27
2018-08-12T02:46:49.082Z,14.43
2018-08-12T02:49:21.233Z,12.33
2018-08-12T02:51:53.430Z,17.00
2018-08-12T02:54:25.772Z,16.50
2018-08-12T02:56:57.693Z,11.70
2018-08-12T02:59:29.842Z,11.20
2018-08-12T03:02:01.975Z,11.57
2018-08-12T03:04:34.222Z,10.87
2018-08-12T03:07:06.986Z,13.13
2018-08-12T03:09:39.374Z,13.43
2018-08-12T03:12:11.542Z,12.43
2018-08-12T03:14:43.718Z,12.77
2018-08-12T03:17:15.878Z,11.43
2018-08-12T03:19:48.272Z,11.37
2018-08-12T03:22:20.598Z,12.23
2018-08-12T03:24:52.867Z,11.90
2018-08-12T03:27:25.001Z,11.87
2018-08-12T03:29:57.184Z,12.43
2018-08-12T03:32:29.173Z,11.13
2018-08-12T03:35:01.296Z,11.47
2018-08-12T03:37:33.567Z,12.07
2018-08-12T03:40:06.282Z,11.13
2018-08-12T03:42:38.550Z,11.03
2018-08-12T03:45:11.557Z,10.30
2018-08-12T03:47:43.580Z,10.77
2018-08-12T03:50:15.541Z,10.93
2018-08-12T03:52:47.516Z,12.90
2018-08-12T03:55:19.659Z,12.50
2018-08-12T03:57:51.785Z,10.97
2018-08-12T04:00:24.093Z,11.67
2018-08-12T04:02:56.340Z,11.70
2018-08-12T04:05:28.784Z,12.50
2018-08-12T04:08:01.197Z,11.80
2018-08-12T04:10:33.457Z,10.40
2018-08-12T04:13:05.689Z,10.57
2018-08-12T04:15:37.880Z,10.27
2018-08-12T04:18:10.524Z,11.40
2018-08-12T04:20:42.916Z,11.33
2018-08-12T04:23:15.030Z,11.87
2018-08-12T04:25:47.494Z,11.03
2018-08-12T04:28:20.018Z,11.57
2018-08-12T04:30:52.422Z,12.00
2018-08-12T04:33:24.730Z,11.23
2018-08-12T04:35:57.129Z,11.10
2018-08-12T04:38:29.226Z,9.77
2018-08-12T04:41:01.454Z,9.57
2018-08-12T04:43:34.001Z,10.57
2018-08-12T04:46:06.261Z,13.63
2018-08-12T04:48:38.404Z,10.83
2018-08-12T04:51:10.869Z,10.90
2018-08-12T04:53:42.902Z,10.60
2018-08-12T04:56:15.435Z,10.70
2018-08-12T04:58:47.489Z,9.37
2018-08-12T05:01:19.922Z,11.93
2018-08-12T05:03:52.335Z,11.87
2018-08-12T05:06:24.606Z,10.97
2018-08-12T05:08:56.992Z,10.97
2018-08-12T05:11:29.303Z,12.33
2018-08-12T05:14:01.228Z,11.63
2018-08-12T05:16:33.373Z,11.60
2018-08-12T05:19:05.575Z,10.83
2018-08-12T05:21:37.757Z,11.03
2018-08-12T05:24:09.967Z,11.47
2018-08-12T05:26:42.444Z,10.83
2018-08-12T05:29:14.416Z,10.10
2018-08-12T05:31:46.759Z,13.03
2018-08-12T05:34:18.965Z,10.77
2018-08-12T05:36:51.167Z,11.53
2018-08-12T05:39:23.766Z,11.70
2018-08-12T05:41:55.785Z,12.00
2018-08-12T05:44:27.970Z,12.20
2018-08-12T05:47:00.090Z,12.27
2018-08-12T05:49:32.492Z,12.60
2018-08-12T05:52:04.948Z,11.40
2018-08-12T05:54:37.008Z,11.30
2018-08-12T05:57:09.213Z,13.10
2018-08-12T05:59:41.167Z,11.07
2018-08-12T06:02:13.903Z,11.70
2018-08-12T06:04:46.165Z,11.63
2018-08-12T06:07:18.599Z,11.40
2018-08-12T06:09:50.665Z,11.73
2018-08-12T06:12:23.320Z,11.67
2018-08-12T06:14:55.376Z,13.07
2018-08-12T06:17:27.450Z,12.37
2018-08-12T06:19:59.570Z,12.23
2018-08-12T06:22:31.581Z,12.03
2018-08-12T06:25:04.082Z,11.43
2018-08-12T06:27:36.537Z,12.97
2018-08-12T06:30:12.556Z,13.40
2018-08-12T06:32:44.830Z,12.60
2018-08-12T06:35:17.006Z,11.87
2018-08-12T06:37:48.945Z,12.63
2018-08-12T06:40:21.815Z,11.63
2018-08-12T06:42:54.112Z,12.00
2018-08-12T06:45:26.060Z,12.27
2018-08-12T06:47:58.342Z,11.63
2018-08-12T06:50:30.733Z,11.47
2018-08-12T06:53:02.863Z,11.57
2018-08-12T06:55:35.301Z,11.50
2018-08-12T06:58:07.700Z,11.73
2018-08-12T07:00:39.809Z,12.07
2018-08-12T07:03:12.088Z,11.33
2018-08-12T07:05:44.405Z,11.83
2018-08-12T07:08:16.691Z,11.30
2018-08-12T07:10:49.006Z,11.67
2018-08-12T07:13:21.092Z,11.20
2018-08-12T07:15:53.970Z,11.43
2018-08-12T07:18:26.183Z,13.27
2018-08-12T07:20:58.244Z,11.70
2018-08-12T07:23:30.416Z,13.27
2018-08-12T07:26:02.674Z,12.90
2018-08-12T07:28:35.100Z,12.63
2018-08-12T07:31:07.510Z,12.73
2018-08-12T07:33:39.567Z,12.43
2018-08-12T07:36:12.014Z,11.20
2018-08-12T07:38:44.274Z,12.37
2018-08-12T07:41:16.761Z,11.47
2018-08-12T07:43:48.735Z,11.93
2018-08-12T07:46:21.361Z,11.30
2018-08-12T07:48:53.471Z,12.00
2018-08-12T07:51:25.645Z,11.87
2018-08-12T07:53:57.741Z,11.40
2018-08-12T07:56:29.908Z,12.70
2018-08-12T07:59:01.978Z,11.87
2018-08-12T08:01:34.225Z,12.50
2018-08-12T08:04:06.452Z,12.70
2018-08-12T08:06:38.457Z,12.47
2018-08-12T08:09:13.363Z,12.47
2018-08-12T08:11:45.486Z,10.93
2018-08-12T08:14:17.736Z,11.37
2018-08-12T08:16:49.899Z,12.23
2018-08-12T08:19:22.001Z,11.60
2018-08-12T08:21:54.151Z,12.53
2018-08-12T08:24:26.242Z,12.15
2018-08-12T08:26:58.608Z,12.67
2018-08-12T08:29:30.996Z,12.60
2018-08-12T08:32:03.317Z,12.20
2018-08-12T08:34:35.649Z,11.87
2018-08-12T08:37:08.033Z,12.20
2018-08-12T08:39:40.663Z,12.50
2018-08-12T08:42:12.668Z,11.97
2018-08-12T08:44:44.835Z,12.20
2018-08-12T08:47:17.155Z,12.67
2018-08-12T08:49:49.335Z,12.33
2018-08-12T08:52:21.535Z,14.07
2018-08-12T08:54:53.664Z,13.65
2018-08-12T08:57:25.912Z,12.60
2018-08-12T08:59:58.108Z,13.87
2018-08-12T09:02:30.578Z,12.53
2018-08-12T09:05:02.893Z,12.57
2018-08-12T09:07:35.376Z,12.93
2018-08-12T09:10:13.465Z,13.73
2018-08-12T09:12:47.138Z,13.87
2018-08-12T09:15:21.176Z,12.83
2018-08-12T09:17:53.421Z,11.90
2018-08-12T09:20:25.718Z,13.20
2018-08-12T09:22:57.932Z,12.00
2018-08-12T09:25:30.372Z,13.40
2018-08-12T09:28:02.646Z,12.53
2018-08-12T09:30:34.934Z,13.20
2018-08-12T09:33:07.236Z,11.60
2018-08-12T09:35:39.238Z,12.63
2018-08-12T09:38:11.474Z,12.77
2018-08-12T09:40:43.763Z,11.20
2018-08-12T09:43:16.056Z,11.17
2018-08-12T09:45:48.187Z,11.73
2018-08-12T09:48:20.584Z,11.73
2018-08-12T09:50:52.963Z,11.40
2018-08-12T09:53:24.888Z,12.00
2018-08-12T09:55:57.124Z,12.93
2018-08-12T09:58:29.219Z,12.00
2018-08-12T10:01:01.476Z,12.73
2018-08-12T10:03:34.046Z,12.27
2018-08-12T10:06:06.252Z,12.83
2018-08-12T10:08:38.411Z,12.30
2018-08-12T10:11:10.884Z,11.47
2018-08-12T10:13:43.056Z,12.70
2018-08-12T10:16:15.485Z,12.80
2018-08-12T10:18:48.174Z,12.80
2018-08-12T10:21:20.547Z,12.00
2018-08-12T10:23:53.016Z,12.53
2018-08-12T10:26:25.340Z,11.33
2018-08-12T10:28:57.427Z,12.13
2018-08-12T10:31:31.225Z,11.93
2018-08-12T10:34:03.383Z,11.70
2018-08-12T10:36:35.594Z,11.37
2018-08-12T10:39:09.477Z,12.17
2018-08-12T10:41:41.847Z,12.60
2018-08-12T10:44:13.987Z,12.60
2018-08-12T10:46:46.357Z,11.63
2018-08-12T10:49:18.491Z,13.47
2018-08-12T10:51:51.967Z,12.60
2018-08-12T10:54:24.286Z,13.23
2018-08-12T10:56:57.517Z,12.57
2018-08-12T10:59:30.180Z,12.75
2018-08-12T11:02:02.545Z,12.37
2018-08-12T11:04:34.970Z,12.30
2018-08-12T11:07:07.573Z,12.40
2018-08-12T11:09:39.734Z,12.05
2018-08-12T11:12:12.435Z,11.93
2018-08-12T11:14:44.830Z,13.25
2018-08-12T11:17:17.112Z,11.70
2018-08-12T11:19:49.339Z,13.93
2018-08-12T11:22:21.407Z,12.13
2018-08-12T11:24:53.374Z,12.77
2018-08-12T11:27:25.240Z,15.20
2018-08-12T11:29:57.178Z,12.63
2018-08-12T11:32:29.899Z,14.20
2018-08-12T11:35:02.188Z,13.90
2018-08-12T11:37:34.375Z,13.80
2018-08-12T11:40:07.146Z,13.67
2018-08-12T11:42:39.371Z,14.93
2018-08-12T11:45:17.144Z,15.10
2018-08-12T11:47:50.268Z,13.70
2018-08-12T11:50:22.576Z,16.03
2018-08-12T11:52:55.038Z,14.43
2018-08-12T11:55:27.467Z,16.40
2018-08-12T11:57:59.892Z,14.23
2018-08-12T12:00:32.646Z,12.53
2018-08-12T12:03:05.031Z,14.37
2018-08-12T12:05:37.232Z,12.50
2018-08-12T12:08:09.813Z,13.97
2018-08-12T12:10:41.873Z,13.03
2018-08-12T12:13:14.309Z,13.57
2018-08-12T12:15:46.517Z,13.87
2018-08-12T12:18:19.091Z,14.60
2018-08-12T12:20:51.062Z,14.67
2018-08-12T12:23:23.332Z,13.77
2018-08-12T12:25:55.469Z,17.97
2018-08-12T12:28:27.721Z,17.50
2018-08-12T12:30:59.871Z,15.93
2018-08-12T12:33:34.336Z,16.83
2018-08-12T12:36:06.709Z,17.67
2018-08-12T12:38:38.864Z,16.47
2018-08-12T12:41:11.169Z,17.07
2018-08-12T12:43:43.565Z,15.00
2018-08-12T12:46:15.935Z,16.27
2018-08-12T12:48:48.382Z,15.00
2018-08-12T12:51:20.495Z,15.57
2018-08-12T12:53:52.785Z,13.87
2018-08-12T12:56:25.680Z,14.47
2018-08-12T12:58:57.964Z,17.23
2018-08-12T13:01:30.785Z,16.63
2018-08-12T13:04:03.249Z,16.37
2018-08-12T13:06:35.385Z,16.00
2018-08-12T13:09:10.379Z,16.10
2018-08-12T13:11:42.707Z,14.63
2018-08-12T13:14:15.451Z,16.37
2018-08-12T13:16:47.312Z,15.83
2018-08-12T13:19:19.614Z,14.23
2018-08-12T13:21:51.677Z,14.20
2018-08-12T13:24:23.955Z,12.37
2018-08-12T13:26:56.044Z,12.97
2018-08-12T13:29:28.429Z,12.50
2018-08-12T13:32:00.416Z,13.33
2018-08-12T13:34:32.521Z,12.90
2018-08-12T13:37:04.566Z,13.30
2018-08-12T13:39:36.774Z,15.03
2018-08-12T13:42:08.913Z,13.70
2018-08-12T13:44:41.151Z,13.83
2018-08-12T13:47:13.351Z,11.77
2018-08-12T13:49:45.622Z,11.77
2018-08-12T13:52:17.965Z,11.80
2018-08-12T13:54:50.407Z,11.63
2018-08-12T13:57:22.652Z,12.60
2018-08-12T13:59:55.084Z,13.03
2018-08-12T14:02:27.352Z,12.17
2018-08-12T14:04:59.326Z,12.00
2018-08-12T14:07:31.482Z,15.23
2018-08-12T14:10:03.626Z,11.33
2018-08-12T14:12:35.895Z,10.97
2018-08-12T14:15:10.363Z,10.93
2018-08-12T14:17:43.939Z,11.93
2018-08-12T14:20:18.089Z,11.73
2018-08-12T14:22:50.528Z,11.57
2018-08-12T14:25:23.018Z,11.33
2018-08-12T14:27:55.070Z,11.70
2018-08-12T14:30:27.247Z,9.93
2018-08-12T14:32:59.084Z,11.35
2018-08-12T14:35:31.517Z,10.33
2018-08-12T14:38:03.496Z,9.73
2018-08-12T14:40:35.744Z,10.40
2018-08-12T14:43:08.016Z,10.47
2018-08-12T14:45:40.576Z,9.30
2018-08-12T14:48:12.648Z,10.43
2018-08-12T14:50:45.407Z,9.80
2018-08-12T14:53:17.666Z,9.50
2018-08-12T14:55:50.013Z,8.83
2018-08-12T14:58:22.182Z,9.50
2018-08-12T15:00:54.480Z,8.83
2018-08-12T15:03:26.917Z,8.20
2018-08-12T15:05:59.077Z,8.23
2018-08-12T15:08:31.386Z,8.30
2018-08-12T15:11:03.610Z,7.87
2018-08-12T15:13:35.660Z,8.50
2018-08-12T15:16:08.231Z,9.17
2018-08-12T15:18:40.490Z,9.77
2018-08-12T15:21:12.813Z,8.03
2018-08-12T15:23:44.915Z,8.90
2018-08-12T15:26:17.193Z,9.67
2018-08-12T15:28:49.361Z,11.20
2018-08-12T15:31:22.463Z,8.85
2018-08-12T15:33:54.552Z,9.13
2018-08-12T15:36:27.069Z,8.33
2018-08-12T15:38:59.297Z,8.97
2018-08-12T15:41:31.440Z,8.77
2018-08-12T15:44:03.736Z,7.80
2018-08-12T15:46:36.149Z,8.30
2018-08-12T15:49:08.759Z,8.67
2018-08-12T15:51:41.682Z,10.63
2018-08-12T15:54:13.960Z,8.67
2018-08-12T15:56:46.654Z,8.90
2018-08-12T15:59:18.837Z,10.10
2018-08-12T16:01:51.271Z,9.30
2018-08-12T16:04:23.432Z,9.23
2018-08-12T16:06:55.612Z,9.33
2018-08-12T16:09:27.585Z,10.30
2018-08-12T16:12:00.078Z,9.73
2018-08-12T16:14:32.028Z,9.57
2018-08-12T16:17:04.470Z,10.50
2018-08-12T16:19:36.831Z,8.97
2018-08-12T16:22:09.119Z,10.53
2018-08-12T16:24:41.416Z,10.70
2018-08-12T16:27:13.531Z,9.20
2018-08-12T16:29:45.802Z,9.20
2018-08-12T16:32:18.099Z,11.50
2018-08-12T16:34:50.343Z,11.30
2018-08-12T16:37:22.843Z,9.60
2018-08-12T16:39:55.174Z,8.93
2018-08-12T16:42:27.265Z,9.23
2018-08-12T16:44:59.559Z,8.50
2018-08-12T16:47:31.744Z,8.07
2018-08-12T16:50:03.819Z,9.70
2018-08-12T16:52:36.362Z,9.27
2018-08-12T16:55:10.500Z,8.48
2018-08-12T16:57:43.213Z,8.63
2018-08-12T17:00:19.657Z,9.27
2018-08-12T17:02:52.288Z,7.55
2018-08-12T17:05:25.477Z,7.97
2018-08-12T17:07:58.000Z,7.85
2018-08-12T17:10:30.293Z,9.10
2018-08-12T17:13:02.577Z,8.53
2018-08-12T17:15:34.728Z,7.50
2018-08-12T17:18:07.935Z,9.13
2018-08-12T17:20:40.261Z,8.33
2018-08-12T17:23:12.384Z,10.60
2018-08-12T17:25:44.660Z,9.58
2018-08-12T17:28:16.694Z,8.65
2018-08-12T17:30:48.819Z,9.98
2018-08-12T17:33:21.179Z,8.00
2018-08-12T17:35:53.360Z,7.58
2018-08-12T17:38:26.221Z,6.90
2018-08-12T17:40:58.451Z,7.87
2018-08-12T17:43:30.693Z,9.10
2018-08-12T17:46:02.727Z,8.68
2018-08-12T17:48:35.341Z,8.60
2018-08-12T17:51:07.498Z,7.85
2018-08-12T17:53:40.015Z,6.55
2018-08-12T17:56:12.393Z,7.22
2018-08-12T17:58:45.014Z,7.00
2018-08-12T18:01:16.957Z,6.00
2018-08-12T18:03:49.107Z,7.55
2018-08-12T18:06:21.682Z,8.15
2018-08-12T18:08:53.896Z,7.37
2018-08-12T18:11:26.149Z,8.30
2018-08-12T18:13:58.287Z,7.33
2018-08-12T18:16:30.576Z,6.67
2018-08-12T18:19:03.053Z,8.05
2018-08-12T18:21:35.306Z,7.03
2018-08-12T18:24:07.571Z,6.28
2018-08-12T18:26:39.894Z,6.33
2018-08-12T18:29:12.327Z,7.25
2018-08-12T18:31:44.431Z,5.17
2018-08-12T18:34:16.591Z,7.22
2018-08-12T18:36:48.600Z,6.45
2018-08-12T18:39:21.083Z,6.85
2018-08-12T18:41:53.683Z,6.35
2018-08-12T18:44:26.415Z,7.17
2018-08-12T18:46:58.951Z,6.53
2018-08-12T18:49:31.309Z,5.40
2018-08-12T18:52:03.186Z,6.03
2018-08-12T18:54:35.772Z,5.92
2018-08-12T18:57:08.113Z,7.67
2018-08-12T18:59:40.623Z,7.03
2018-08-12T19:02:12.919Z,6.30
2018-08-12T19:04:45.351Z,6.37
2018-08-12T19:07:17.350Z,6.65
2018-08-12T19:09:49.460Z,6.65
2018-08-12T19:12:21.725Z,6.85
2018-08-12T19:14:54.229Z,6.53
2018-08-12T19:17:26.099Z,6.15
2018-08-12T19:19:58.719Z,7.42
2018-08-12T19:22:30.998Z,7.10
2018-08-12T19:25:03.508Z,7.55
2018-08-12T19:27:35.862Z,7.95
2018-08-12T19:30:10.836Z,9.35
2018-08-12T19:32:42.981Z,10.80
2018-08-12T19:35:15.296Z,8.35
2018-08-12T19:37:47.225Z,8.05
2018-08-12T19:40:19.522Z,6.10
2018-08-12T19:42:51.414Z,7.80
2018-08-12T19:45:23.788Z,7.40
2018-08-12T19:47:56.014Z,6.92
2018-08-12T19:50:28.311Z,6.62
2018-08-12T19:53:00.350Z,7.22
2018-08-12T19:55:33.882Z,6.87
2018-08-12T19:58:05.973Z,7.10
2018-08-12T20:00:38.061Z,5.53
2018-08-12T20:03:10.244Z,7.08
2018-08-12T20:05:42.333Z,5.72
2018-08-12T20:08:14.480Z,7.28
2018-08-12T20:10:46.640Z,6.60
2018-08-12T20:13:18.761Z,8.13
2018-08-12T20:15:50.817Z,7.03
2018-08-12T20:18:23.031Z,6.53
2018-08-12T20:20:55.211Z,7.20
2018-08-12T20:23:27.290Z,7.35
2018-08-12T20:25:59.848Z,7.15
2018-08-12T20:28:32.163Z,5.40
2018-08-12T20:31:04.489Z,7.37
2018-08-12T20:33:36.486Z,6.12
2018-08-12T20:36:08.520Z,5.87
2018-08-12T20:38:40.673Z,5.50
2018-08-12T20:41:13.287Z,5.12
2018-08-12T20:43:45.774Z,6.40
2018-08-12T20:46:18.198Z,6.37
2018-08-12T20:48:50.542Z,6.12
2018-08-12T20:51:22.499Z,5.53
2018-08-12T20:53:54.946Z,6.30
2018-08-12T20:56:27.334Z,6.10
2018-08-12T20:58:59.525Z,4.80
2018-08-12T21:01:31.674Z,7.50
2018-08-12T21:06:34.788Z,5.63
2018-08-12T21:11:38.576Z,6.60
2018-08-12T21:14:11.188Z,6.73
2018-08-12T21:16:43.345Z,7.40
2018-08-12T21:19:15.660Z,6.90
2018-08-12T21:21:47.865Z,6.60
2018-08-12T21:24:19.956Z,6.20
2018-08-12T21:26:52.290Z,5.35
2018-08-12T21:29:24.781Z,5.30
2018-08-12T21:31:56.900Z,5.75
2018-08-12T21:34:29.462Z,5.83
2018-08-12T21:37:01.454Z,5.85
2018-08-12T21:39:33.690Z,7.42
2018-08-12T21:42:06.028Z,5.00
2018-08-12T21:44:38.163Z,5.10
2018-08-12T21:47:10.580Z,4.97
2018-08-12T21:49:42.738Z,6.03
2018-08-12T21:52:14.697Z,6.58
2018-08-12T21:54:47.087Z,6.55
2018-08-12T21:57:19.388Z,5.83
2018-08-12T21:59:51.688Z,6.00
2018-08-12T22:02:24.363Z,5.25
2018-08-12T22:04:56.509Z,5.30
2018-08-12T22:07:28.575Z,6.85
2018-08-12T22:10:00.872Z,7.25
2018-08-12T22:12:32.939Z,7.40
2018-08-12T22:15:05.460Z,6.45
2018-08-12T22:17:37.876Z,7.03
2018-08-12T22:20:10.380Z,6.20
2018-08-12T22:25:14.404Z,7.47
2018-08-12T22:27:46.700Z,5.70
2018-08-12T22:30:18.899Z,6.77
2018-08-12T22:37:52.126Z,7.10
2018-08-12T22:40:24.365Z,6.10
2018-08-12T23:23:48.982Z,6.33
